Time;durP1;ratioP1;P1;durP2;ratioP2;P2;SDS_P1;SDS_P2;PMS_P1;PMS_P2;Temp;Humidity;BMP_temperature;BMP_pressure;BME280_temperature;BME280_humidity;BME280_pressure;Samples;Min_cycle;Max_cycle;Signal;HPM_P1;HPM_P2
2020/12/03 00:00:47;;;;;;;27.23;13.93;;;;;;;-0.73;67.13;99752.34;5076436;28;20024;-78
2020/12/03 00:03:15;;;;;;;33.42;13.65;;;;;;;-0.96;66.69;99710.44;5076195;28;20093;-77
2020/12/03 00:05:43;;;;;;;33.40;14.57;;;;;;;-0.83;67.14;99754.41;5091354;28;20478;-78
2020/12/03 00:08:10;;;;;;;30.50;13.95;;;;;;;-0.90;67.06;99753.56;5083692;28;20039;-78
2020/12/03 00:10:36;;;;;;;30.33;13.82;;;;;;;-0.91;66.72;99762.41;5094628;28;20390;-81
2020/12/03 00:13:09;;;;;;;30.60;14.80;;;;;;;-0.99;66.76;99747.56;5093840;28;20016;-80
2020/12/03 00:15:35;;;;;;;29.57;14.03;;;;;;;-0.96;67.21;99760.34;5084703;28;20020;-80
2020/12/03 00:18:00;;;;;;;26.50;12.37;;;;;;;-0.95;67.40;99769.00;5080013;28;20026;-81
2020/12/03 00:20:27;;;;;;;27.75;13.35;;;;;;;-1.02;67.32;99767.13;5083402;28;20308;-81
2020/12/03 00:22:52;;;;;;;26.90;12.82;;;;;;;-0.99;67.34;99758.91;5097879;28;20036;-78
2020/12/03 00:25:17;;;;;;;23.20;11.55;;;;;;;-0.99;67.86;99771.19;5095386;28;20488;-78
2020/12/03 00:27:55;;;;;;;25.30;12.73;;;;;;;-1.02;67.52;99775.00;5095966;28;20016;-75
2020/12/03 00:30:21;;;;;;;21.70;10.40;;;;;;;-1.08;67.59;99764.41;5082068;28;20049;-76
2020/12/03 00:32:49;;;;;;;19.37;9.83;;;;;;;-1.09;67.97;99765.41;5098432;28;20032;-76
2020/12/03 00:35:15;;;;;;;21.67;10.50;;;;;;;-1.08;68.46;99770.47;5075676;28;20642;-76
2020/12/03 00:37:41;;;;;;;24.00;11.13;;;;;;;-1.05;68.57;99775.38;5075885;28;20032;-76
2020/12/03 00:40:07;;;;;;;19.65;10.05;;;;;;;-0.99;68.20;99776.44;5078450;28;20071;-79
2020/12/03 00:42:33;;;;;;;28.95;11.93;;;;;;;-0.99;68.36;99764.16;5086616;28;20063;-77
2020/12/03 00:44:58;;;;;;;19.40;9.20;;;;;;;-0.95;68.58;99771.63;5090432;28;20038;-77
2020/12/03 00:47:23;;;;;;;19.53;9.23;;;;;;;-0.93;68.91;99769.66;5092491;28;20389;-79
2020/12/03 00:49:49;;;;;;;19.65;9.18;;;;;;;-0.88;68.48;99772.53;5095181;28;20048;-76
2020/12/03 00:52:14;;;;;;;17.05;8.52;;;;;;;-0.82;68.92;99774.44;5079506;28;20028;-76
2020/12/03 00:54:42;;;;;;;17.00;9.18;;;;;;;-0.82;68.83;99764.75;5087491;28;20071;-77
2020/12/03 00:57:08;;;;;;;23.65;10.70;;;;;;;-0.73;68.65;99778.59;5095207;28;20184;-80
2020/12/03 00:59:37;;;;;;;24.50;13.05;;;;;;;-0.71;68.81;99773.16;5093405;28;20118;-79
2020/12/03 01:02:09;;;;;;;28.08;16.58;;;;;;;-0.69;69.16;99774.59;5080880;28;20033;-79
2020/12/03 01:04:35;;;;;;;22.35;11.93;;;;;;;-0.70;68.72;99765.09;5087429;28;20103;-78
2020/12/03 01:07:00;;;;;;;19.95;9.60;;;;;;;-0.67;68.75;99756.84;5085881;28;20081;-77
2020/12/03 01:09:26;;;;;;;14.60;8.90;;;;;;;-0.68;69.04;99754.41;5099961;28;20587;-75
2020/12/03 01:11:51;;;;;;;20.77;8.23;;;;;;;-0.61;69.39;99759.72;5083185;28;20031;-74
2020/12/03 01:14:16;;;;;;;17.92;8.30;;;;;;;-0.60;68.95;99753.47;5110588;28;20071;-74
2020/12/03 01:16:42;;;;;;;26.08;10.45;;;;;;;-0.60;69.01;99750.84;5093477;28;20023;-73
2020/12/03 01:19:07;;;;;;;19.80;8.98;;;;;;;-0.49;69.12;99755.63;5113225;28;20062;-74
2020/12/03 01:21:33;;;;;;;17.17;8.57;;;;;;;-0.41;69.19;99760.75;5108619;28;20031;-73
2020/12/03 01:23:58;;;;;;;16.13;8.27;;;;;;;-0.43;69.16;99746.19;5097474;28;20028;-76
2020/12/03 01:26:24;;;;;;;20.10;8.88;;;;;;;-0.34;68.96;99755.59;5092777;28;20455;-77
2020/12/03 01:28:49;;;;;;;14.10;7.40;;;;;;;-0.34;69.21;99751.13;5092699;28;20032;-79
2020/12/03 01:31:15;;;;;;;12.38;7.28;;;;;;;-0.31;69.23;99749.94;5088797;28;20027;-77
2020/12/03 01:33:41;;;;;;;16.10;7.28;;;;;;;-0.28;69.18;99749.56;5087596;28;20026;-80
2020/12/03 01:36:08;;;;;;;17.83;7.28;;;;;;;-0.24;69.16;99750.03;5087328;28;20031;-75
2020/12/03 01:38:33;;;;;;;16.30;7.55;;;;;;;-0.22;69.22;99743.56;5086091;28;20533;-80
2020/12/03 01:40:59;;;;;;;16.95;7.10;;;;;;;-0.22;69.38;99735.69;5091601;28;20118;-78
2020/12/03 01:43:24;;;;;;;10.15;6.18;;;;;;;-0.17;69.39;99738.56;5078708;28;20577;-80
2020/12/03 01:45:56;;;;;;;15.60;7.47;;;;;;;-0.15;69.51;99746.25;5074348;28;20024;-76
2020/12/03 01:48:39;;;;;;;12.80;5.72;;;;;;;-0.10;69.46;99748.31;5074216;28;20032;-79
2020/12/03 01:51:27;;;;;;;14.82;7.80;;;;;;;-0.12;69.64;99748.50;5074509;28;20040;-81
2020/12/03 01:53:57;;;;;;;17.55;8.05;;;;;;;-0.07;69.58;99751.38;5079450;28;20027;-79
2020/12/03 01:56:28;;;;;;;15.77;7.53;;;;;;;-0.04;69.53;99750.19;5103759;28;20060;-78
2020/12/03 01:58:54;;;;;;;12.95;7.32;;;;;;;-0.05;69.59;99736.25;5074326;28;20464;-79
2020/12/03 02:01:20;;;;;;;19.98;8.40;;;;;;;-0.02;69.69;99735.84;5079045;28;20458;-77
2020/12/03 02:03:48;;;;;;;17.52;7.95;;;;;;;0.01;69.07;99728.59;5093675;28;20085;-74
2020/12/03 02:06:22;;;;;;;12.95;6.95;;;;;;;0.01;69.26;99723.34;5093840;28;20016;-74
2020/12/03 02:08:48;;;;;;;19.77;7.43;;;;;;;0.08;69.26;99734.72;5083301;28;20054;-76
2020/12/03 02:11:15;;;;;;;18.73;7.35;;;;;;;0.09;69.14;99729.25;5104584;28;20405;-78
2020/12/03 02:13:54;;;;;;;18.92;7.22;;;;;;;0.11;69.32;99724.63;5088312;28;20031;-78
2020/12/03 02:16:22;;;;;;;15.07;6.78;;;;;;;0.16;69.19;99726.69;5075077;28;20020;-79
2020/12/03 02:18:47;;;;;;;10.88;6.70;;;;;;;0.15;69.27;99710.09;5093730;28;20489;-77
2020/12/03 02:21:14;;;;;;;15.52;7.63;;;;;;;0.12;69.11;99707.84;5088769;28;20020;-78
2020/12/03 02:23:39;;;;;;;13.82;7.65;;;;;;;0.21;69.06;99719.03;5073124;28;20024;-79
2020/12/03 02:26:05;;;;;;;15.18;7.45;;;;;;;0.19;68.90;99721.03;5077501;28;20020;-80
2020/12/03 02:28:30;;;;;;;16.98;6.78;;;;;;;0.26;68.91;99721.09;5091533;28;20611;-78
2020/12/03 02:30:56;;;;;;;13.48;6.57;;;;;;;0.28;69.09;99722.53;5090181;28;20085;-79
2020/12/03 02:33:21;;;;;;;18.45;8.05;;;;;;;0.28;69.39;99705.91;5091053;28;20028;-79
2020/12/03 02:35:47;;;;;;;21.63;8.70;;;;;;;0.32;69.36;99709.81;5093181;28;20504;-81
2020/12/03 02:38:12;;;;;;;17.73;7.28;;;;;;;0.36;68.89;99718.13;5088028;28;20020;-81
2020/12/03 02:40:37;;;;;;;11.98;7.25;;;;;;;0.38;69.34;99710.84;5073316;28;20038;-76
2020/12/03 02:43:03;;;;;;;13.15;7.28;;;;;;;0.39;69.38;99708.03;5091775;28;20032;-89
2020/12/03 02:45:28;;;;;;;18.15;9.43;;;;;;;0.43;68.98;99714.53;5073256;28;20118;-78
2020/12/03 02:47:54;;;;;;;15.55;9.35;;;;;;;0.45;68.50;99716.97;5073340;28;20538;-81
2020/12/03 02:50:19;;;;;;;17.08;8.80;;;;;;;0.44;69.01;99712.69;5085435;28;20039;-80
2020/12/03 02:52:44;;;;;;;22.17;8.07;;;;;;;0.47;69.25;99713.13;5092601;28;20027;-80
2020/12/03 02:55:10;;;;;;;17.42;9.40;;;;;;;0.42;69.15;99718.16;5091421;28;20041;-81
2020/12/03 02:57:35;;;;;;;16.75;8.70;;;;;;;0.43;69.31;99713.72;5073994;28;20048;-81
2020/12/03 03:00:01;;;;;;;13.85;7.40;;;;;;;0.48;69.22;99721.84;5073213;28;20051;-81
2020/12/03 03:02:26;;;;;;;17.88;7.68;;;;;;;0.45;69.41;99715.16;5076714;28;20066;-81
2020/12/03 03:04:51;;;;;;;20.67;9.45;;;;;;;0.44;69.45;99713.53;5073202;28;20459;-74
2020/12/03 03:07:17;;;;;;;15.55;8.82;;;;;;;0.51;69.56;99712.75;5084561;28;20035;-78
2020/12/03 03:09:43;;;;;;;21.35;9.68;;;;;;;0.53;69.69;99711.56;5093172;28;20596;-79
2020/12/03 03:12:08;;;;;;;18.63;8.43;;;;;;;0.54;69.67;99715.81;5086505;28;20028;-79
2020/12/03 03:14:34;;;;;;;19.02;9.35;;;;;;;0.48;69.70;99704.22;5072347;28;20036;-78
2020/12/03 03:16:59;;;;;;;17.83;8.57;;;;;;;0.56;69.60;99713.81;5073107;28;20475;-80
2020/12/03 03:19:25;;;;;;;22.02;10.00;;;;;;;0.52;70.52;99703.88;5083976;28;20032;-79
2020/12/03 03:21:50;;;;;;;23.83;10.85;;;;;;;0.59;69.89;99712.59;5091344;28;20024;-77
2020/12/03 03:24:16;;;;;;;33.72;13.57;;;;;;;0.64;70.02;99715.47;5073124;28;20028;-76
2020/12/03 03:26:42;;;;;;;23.27;11.82;;;;;;;0.58;70.28;99700.44;5107996;28;20031;-77
2020/12/03 03:29:08;;;;;;;16.10;10.20;;;;;;;0.67;70.28;99712.44;5080923;28;20035;-75
2020/12/03 03:31:33;;;;;;;19.35;10.73;;;;;;;0.70;69.71;99714.69;5091913;28;20486;-78
2020/12/03 03:33:59;;;;;;;23.25;10.90;;;;;;;0.70;69.99;99703.34;5081454;28;20015;-76
2020/12/03 03:36:24;;;;;;;18.38;10.48;;;;;;;0.74;69.54;99705.38;5078187;28;20024;-77
2020/12/03 03:38:50;;;;;;;24.00;11.43;;;;;;;0.77;69.82;99702.38;5072768;28;20050;-79
2020/12/03 03:41:16;;;;;;;28.60;12.15;;;;;;;0.78;69.71;99709.28;5072749;28;20016;-76
2020/12/03 03:43:41;;;;;;;25.73;11.73;;;;;;;0.80;69.63;99706.44;5073627;28;20039;-76
2020/12/03 03:46:07;;;;;;;24.35;12.80;;;;;;;0.80;69.49;99706.44;5072826;28;20034;-76
2020/12/03 03:48:33;;;;;;;25.40;12.15;;;;;;;0.84;69.35;99714.75;5072805;28;20024;-76
2020/12/03 03:50:58;;;;;;;24.08;12.13;;;;;;;0.77;69.65;99697.09;5072821;28;20070;-75
2020/12/03 03:53:24;;;;;;;24.55;9.90;;;;;;;0.86;69.60;99699.56;5107453;28;20020;-76
2020/12/03 03:55:50;;;;;;;30.17;11.00;;;;;;;0.86;69.91;99703.00;5082899;28;20063;-77
2020/12/03 03:58:15;;;;;;;25.30;11.77;;;;;;;0.88;69.69;99710.72;5081706;28;20027;-79
2020/12/03 04:00:42;;;;;;;15.95;9.90;;;;;;;0.77;70.17;99676.03;5079861;28;20024;-81
2020/12/03 04:03:13;;;;;;;27.33;10.95;;;;;;;0.91;70.57;99686.63;5090782;28;20024;-79
2020/12/03 04:05:42;;;;;;;19.13;10.38;;;;;;;0.96;71.08;99692.13;5073715;28;20138;-80
2020/12/03 04:08:08;;;;;;;21.10;10.18;;;;;;;1.03;70.65;99692.97;5075317;28;20019;-76
2020/12/03 04:10:34;;;;;;;16.38;9.55;;;;;;;1.02;71.31;99693.16;5091837;28;20105;-76
2020/12/03 04:12:59;;;;;;;23.25;9.95;;;;;;;1.04;70.74;99694.59;5090352;28;20016;-77
2020/12/03 04:15:25;;;;;;;26.67;11.48;;;;;;;1.06;70.54;99703.13;5092469;28;20110;-78
2020/12/03 04:17:50;;;;;;;24.38;11.45;;;;;;;1.10;70.56;99699.06;5088185;28;20046;-76
2020/12/03 04:20:16;;;;;;;22.50;11.07;;;;;;;1.13;70.11;99699.69;5072054;28;20103;-76
2020/12/03 04:22:43;;;;;;;26.08;10.85;;;;;;;1.11;70.44;99691.97;5073254;28;20024;-76
2020/12/03 04:25:09;;;;;;;33.55;14.00;;;;;;;1.15;70.02;99690.56;5080448;28;20023;-80
2020/12/03 04:27:34;;;;;;;20.95;10.10;;;;;;;1.20;70.44;99697.88;5094670;28;20027;-79
2020/12/03 04:29:59;;;;;;;21.77;10.63;;;;;;;1.20;70.42;99697.88;5093643;28;20119;-78
2020/12/03 04:32:25;;;;;;;25.13;10.57;;;;;;;1.18;70.66;99692.78;5095924;28;20036;-75
2020/12/03 04:34:50;;;;;;;18.77;10.60;;;;;;;1.21;70.31;99695.03;5083667;28;20557;-77
2020/12/03 04:37:15;;;;;;;18.60;10.35;;;;;;;1.23;70.30;99692.19;5093717;28;20024;-77
2020/12/03 04:39:41;;;;;;;22.17;11.93;;;;;;;1.23;70.22;99692.19;5090007;28;20028;-79
2020/12/03 04:42:29;;;;;;;21.10;11.55;;;;;;;1.22;70.36;99688.78;5077286;28;20640;-76
2020/12/03 04:45:00;;;;;;;23.75;12.57;;;;;;;1.23;70.33;99689.56;5087947;28;20428;-78
2020/12/03 04:47:25;;;;;;;18.20;10.50;;;;;;;1.28;70.22;99703.78;5095905;28;20032;-76
2020/12/03 04:50:02;;;;;;;21.80;11.20;;;;;;;1.19;70.28;99686.53;5094776;28;20405;-76
2020/12/03 04:52:45;;;;;;;27.63;13.07;;;;;;;1.30;70.57;99703.56;5093623;28;20069;-77
2020/12/03 04:55:17;;;;;;;19.73;10.07;;;;;;;1.33;70.41;99705.00;5087725;28;20043;-80
2020/12/03 04:58:19;;;;;;;14.35;7.72;;;;;;;1.33;70.64;99703.19;5093754;28;20027;-77
2020/12/03 05:00:56;;;;;;;15.35;7.85;;;;;;;1.33;70.95;99697.09;5081912;28;20478;-77
2020/12/03 05:03:48;;;;;;;21.00;9.93;;;;;;;1.33;70.83;99705.00;5095130;28;20031;-80
2020/12/03 05:06:28;;;;;;;22.25;9.15;;;;;;;1.34;70.84;99709.25;5089343;28;20519;-79
2020/12/03 05:09:04;;;;;;;21.45;10.05;;;;;;;1.32;70.56;99708.63;5084291;28;20083;-81
2020/12/03 05:11:42;;;;;;;24.10;11.18;;;;;;;1.32;70.64;99711.28;5080557;28;20028;-78
2020/12/03 05:14:54;;;;;;;23.70;12.05;;;;;;;1.34;70.34;99712.69;5091753;28;20028;-79
2020/12/03 05:17:28;;;;;;;22.88;13.48;;;;;;;1.28;70.44;99700.31;5057598;28;20028;-76
2020/12/03 05:19:59;;;;;;;24.25;12.23;;;;;;;1.36;70.67;99710.69;5074257;28;20031;-76
2020/12/03 05:22:26;;;;;;;25.15;12.80;;;;;;;1.36;70.91;99712.53;5074612;28;20161;-75
2020/12/03 05:24:52;;;;;;;25.48;11.57;;;;;;;1.34;71.02;99711.91;5091931;28;20016;-75
2020/12/03 05:27:38;;;;;;;25.40;13.13;;;;;;;1.31;70.59;99715.75;5088975;28;20027;-74
2020/12/03 05:30:06;;;;;;;33.22;15.63;;;;;;;1.37;71.33;99714.94;5098158;28;20027;-75
2020/12/03 05:32:31;;;;;;;29.83;16.45;;;;;;;1.38;71.09;99710.47;5076845;28;20084;-74
2020/12/03 05:34:57;;;;;;;30.13;14.77;;;;;;;1.38;70.77;99715.75;5079307;28;20805;-76
2020/12/03 05:37:26;;;;;;;23.40;13.45;;;;;;;1.43;70.64;99718.63;5085665;28;20050;-78
2020/12/03 05:39:57;;;;;;;25.17;12.73;;;;;;;1.32;71.17;99704.19;5083263;28;20031;-75
2020/12/03 05:42:34;;;;;;;22.42;13.32;;;;;;;1.37;70.86;99722.06;5077121;28;20020;-78
2020/12/03 05:45:11;;;;;;;14.43;8.80;;;;;;;1.34;71.40;99717.16;5074280;28;20020;-80
2020/12/03 05:47:41;;;;;;;16.80;9.32;;;;;;;1.36;71.19;99725.69;5074269;28;20501;-80
2020/12/03 05:50:15;;;;;;;39.67;14.85;;;;;;;1.36;71.33;99723.88;5074179;28;20048;-81
2020/12/03 05:53:05;;;;;;;39.25;17.00;;;;;;;1.40;71.35;99729.56;5073953;28;20035;-80
2020/12/03 05:55:33;;;;;;;35.28;16.55;;;;;;;1.36;71.50;99723.88;5061485;28;20043;-78
2020/12/03 05:58:17;;;;;;;23.75;13.52;;;;;;;1.41;71.13;99734.63;5074040;28;20015;-79
2020/12/03 06:00:44;;;;;;;31.75;14.82;;;;;;;1.43;71.35;99735.25;5073775;28;20024;-78
2020/12/03 06:03:34;;;;;;;57.75;25.27;;;;;;;1.47;71.56;99740.13;5074142;28;20051;-77
2020/12/03 06:06:37;;;;;;;47.00;22.55;;;;;;;1.48;71.33;99744.38;5074064;28;20081;-78
2020/12/03 06:09:23;;;;;;;29.65;15.75;;;;;;;1.47;71.08;99733.03;5073601;28;20028;-78
2020/12/03 06:11:51;;;;;;;27.60;13.68;;;;;;;1.51;71.16;99739.50;5086847;28;20027;-78
2020/12/03 06:14:35;;;;;;;20.77;9.57;;;;;;;1.47;71.10;99737.50;5091932;28;20263;-78
2020/12/03 06:17:18;;;;;;;23.15;12.32;;;;;;;1.44;71.09;99733.41;5089872;28;20020;-78
2020/12/03 06:20:20;;;;;;;14.38;6.88;;;;;;;1.44;70.95;99746.59;5081427;28;20019;-78
2020/12/03 06:23:02;;;;;;;11.85;7.25;;;;;;;1.41;71.26;99742.53;5073418;28;20111;-78
2020/12/03 06:26:06;;;;;;;16.73;8.32;;;;;;;1.41;71.05;99741.72;5077381;28;20509;-82
2020/12/03 06:28:57;;;;;;;42.10;18.85;;;;;;;1.38;71.14;99740.31;5073070;28;20048;-78
2020/12/03 06:31:28;;;;;;;43.30;21.00;;;;;;;1.34;71.72;99735.63;5078228;28;20032;-77
2020/12/03 06:34:14;;;;;;;46.20;21.70;;;;;;;1.32;71.82;99735.81;5073247;28;20116;-77
2020/12/03 06:36:52;;;;;;;45.60;20.98;;;;;;;1.41;71.88;99736.44;5088538;28;20027;-77
2020/12/03 06:39:35;;;;;;;37.03;19.50;;;;;;;1.39;71.79;99727.91;5106775;28;20051;-78
2020/12/03 06:42:25;;;;;;;44.00;19.10;;;;;;;1.48;72.00;99733.81;5088798;28;20107;-77
2020/12/03 06:44:58;;;;;;;40.90;18.85;;;;;;;1.51;71.79;99736.06;5079412;28;20042;-76
2020/12/03 06:47:29;;;;;;;18.50;10.07;;;;;;;1.50;71.23;99737.06;5076674;28;20178;-78
2020/12/03 06:50:01;;;;;;;19.75;8.65;;;;;;;1.42;71.12;99728.34;5083515;28;20032;-79
2020/12/03 06:52:56;;;;;;;16.05;8.13;;;;;;;1.41;70.99;99731.97;5072980;28;20231;-76
2020/12/03 06:55:40;;;;;;;14.20;6.75;;;;;;;1.36;71.57;99731.78;5028451;28;20119;-77
2020/12/03 06:58:15;;;;;;;13.55;7.28;;;;;;;1.34;71.43;99725.06;5091535;28;20035;-78
2020/12/03 07:01:02;;;;;;;12.63;6.93;;;;;;;1.34;71.73;99728.50;5093102;28;20027;-79
2020/12/03 07:03:58;;;;;;;21.95;11.13;;;;;;;1.33;72.13;99724.28;5076685;28;20198;-76
2020/12/03 07:06:41;;;;;;;19.77;10.27;;;;;;;1.39;71.92;99731.38;5072220;28;20126;-77
2020/12/03 07:09:22;;;;;;;24.90;12.73;;;;;;;1.43;71.83;99734.44;5084502;28;20057;-76
2020/12/03 07:11:57;;;;;;;27.27;13.65;;;;;;;1.41;72.01;99731.19;5090743;28;20425;-77
2020/12/03 07:15:04;;;;;;;29.73;14.85;;;;;;;1.51;71.61;99741.34;5080852;28;20027;-78
2020/12/03 07:18:15;;;;;;;78.80;38.55;;;;;;;1.48;71.81;99729.38;5082706;28;20049;-79
2020/12/03 07:21:13;;;;;;;35.75;18.10;;;;;;;1.62;71.52;99740.75;5089570;28;20058;-77
2020/12/03 07:23:59;;;;;;;;;;;;;;;1.64;71.37;99746.66;5074169;28;20028;-77
2020/12/03 07:27:12;;;;;;;29.30;13.05;;;;;;;1.68;71.41;99747.06;5090030;28;19903;-77
2020/12/03 07:29:37;;;;;;;33.55;16.73;;;;;;;1.70;70.74;99756.41;5070474;28;20036;-78
2020/12/03 07:32:04;;;;;;;32.03;16.00;;;;;;;1.68;70.89;99750.50;5071902;28;20509;-77
2020/12/03 07:34:42;;;;;;;34.25;15.98;;;;;;;1.73;71.28;99750.72;5072866;28;20043;-75
2020/12/03 07:37:27;;;;;;;35.38;17.48;;;;;;;1.71;70.98;99744.00;5091451;28;20078;-77
2020/12/03 07:39:53;;;;;;;34.25;17.02;;;;;;;1.67;71.20;99735.72;5089962;28;20090;-76
2020/12/03 07:42:22;;;;;;;34.30;16.63;;;;;;;1.71;71.15;99746.66;5072823;28;20024;-76
2020/12/03 07:44:53;;;;;;;34.97;16.48;;;;;;;1.71;71.25;99750.13;5072439;28;20114;-76
2020/12/03 07:47:34;;;;;;;22.88;13.23;;;;;;;1.70;71.07;99756.41;5072774;28;20028;-76
2020/12/03 07:50:27;;;;;;;29.83;15.93;;;;;;;1.63;71.09;99752.94;5086435;28;20536;-78
2020/12/03 07:53:22;;;;;;;34.83;15.18;;;;;;;1.68;70.75;99773.44;5092396;28;20121;-88
2020/12/03 07:55:48;;;;;;;29.88;15.20;;;;;;;1.59;71.12;99755.16;5092546;28;20084;-76
2020/12/03 07:58:34;;;;;;;44.97;21.40;;;;;;;1.72;71.02;99769.38;5078981;28;20107;-79
2020/12/03 08:00:59;;;;;;;33.53;16.15;;;;;;;1.72;71.35;99767.56;5075061;28;20028;-80
2020/12/03 08:03:37;;;;;;;27.60;14.85;;;;;;;1.74;71.03;99780.53;5092923;28;20035;-80
2020/12/03 08:06:32;;;;;;;32.87;15.70;;;;;;;1.72;71.03;99770.19;5094997;28;20542;-78
2020/12/03 08:09:00;;;;;;;29.88;16.55;;;;;;;1.71;71.14;99751.91;5078189;28;20055;-80
2020/12/03 08:11:38;;;;;;;33.25;16.13;;;;;;;1.83;71.12;99771.44;5091772;28;20035;-80
2020/12/03 08:14:24;;;;;;;21.27;11.70;;;;;;;1.84;71.02;99762.50;5081881;28;20031;-79
2020/12/03 08:16:49;;;;;;;26.15;14.05;;;;;;;1.87;70.84;99762.09;5092587;28;20027;-75
2020/12/03 08:19:14;;;;;;;28.42;16.15;;;;;;;1.94;70.75;99767.38;5088142;28;20019;-76
2020/12/03 08:21:41;;;;;;;28.17;15.43;;;;;;;1.93;70.54;99760.50;5082692;28;20126;-75
2020/12/03 08:24:17;;;;;;;30.60;15.75;;;;;;;1.97;70.65;99771.47;5112347;28;20033;-75
2020/12/03 08:26:42;;;;;;;34.75;16.25;;;;;;;1.96;70.40;99773.28;5105335;28;20028;-76
2020/12/03 08:29:23;;;;;;;31.60;15.55;;;;;;;1.92;70.34;99758.88;5095645;28;20512;-77
2020/12/03 08:31:49;;;;;;;29.35;15.18;;;;;;;2.01;70.14;99770.03;5062947;28;20027;-79
2020/12/03 08:34:14;;;;;;;36.90;17.60;;;;;;;2.00;70.23;99765.75;5098465;28;20032;-77
2020/12/03 08:36:41;;;;;;;26.88;14.65;;;;;;;2.03;70.26;99758.25;5087144;28;20080;-77
2020/12/03 08:39:07;;;;;;;38.85;16.45;;;;;;;2.04;70.12;99759.09;5095744;28;20156;-78
2020/12/03 08:41:32;;;;;;;31.50;16.42;;;;;;;2.06;69.96;99765.78;5095644;28;20057;-78
2020/12/03 08:44:03;;;;;;;31.23;15.98;;;;;;;2.09;69.73;99754.00;5089651;28;20120;-78
2020/12/03 08:46:32;;;;;;;30.60;14.18;;;;;;;2.09;70.00;99754.00;5095502;28;20447;-78
2020/12/03 08:48:58;;;;;;;37.15;17.08;;;;;;;2.10;70.03;99754.81;5095321;28;20067;-78
2020/12/03 08:51:23;;;;;;;25.48;14.85;;;;;;;2.08;69.83;99739.19;5095778;28;20466;-76
2020/12/03 08:53:49;;;;;;;29.65;15.48;;;;;;;2.11;69.62;99743.25;5085163;28;20028;-77
2020/12/03 08:56:20;;;;;;;32.83;15.85;;;;;;;2.11;69.87;99733.50;5075856;28;20034;-78
2020/12/03 08:59:01;;;;;;;32.13;14.70;;;;;;;2.19;69.29;99743.84;5089089;28;20042;-78
2020/12/03 09:01:33;;;;;;;23.55;11.98;;;;;;;2.11;69.40;99736.13;5095545;28;20031;-78
2020/12/03 09:04:03;;;;;;;27.67;14.85;;;;;;;2.14;69.53;99740.22;5082348;28;20024;-77
2020/12/03 09:06:31;;;;;;;31.55;14.48;;;;;;;2.15;69.56;99732.09;5084020;28;20055;-80
2020/12/03 09:08:57;;;;;;;28.93;14.90;;;;;;;2.16;69.54;99730.25;5087563;28;20539;-77
2020/12/03 09:11:24;;;;;;;30.27;14.77;;;;;;;1.95;69.33;99689.84;5074101;28;20157;-75
2020/12/03 09:13:57;;;;;;;35.50;17.60;;;;;;;2.21;69.23;99722.53;5078421;28;20390;-76
2020/12/03 09:16:25;;;;;;;33.28;17.25;;;;;;;2.25;69.32;99721.13;5076775;28;20024;-75
2020/12/03 09:18:51;;;;;;;29.20;17.05;;;;;;;2.28;69.61;99715.41;5094377;28;20478;-75
2020/12/03 09:21:30;;;;;;;29.50;16.90;;;;;;;2.20;69.25;99700.63;5095201;28;20026;-75
2020/12/03 09:23:57;;;;;;;37.22;18.67;;;;;;;2.31;69.60;99698.38;5093060;28;20024;-75
2020/12/03 09:26:32;;;;;;;35.83;18.58;;;;;;;2.37;69.30;99698.34;5092783;28;20157;-79
2020/12/03 09:28:59;;;;;;;45.00;21.35;;;;;;;2.36;68.93;99699.38;5074288;28;20111;-76
2020/12/03 09:31:26;;;;;;;42.33;21.60;;;;;;;2.40;69.00;99697.97;5076365;28;20023;-80
2020/12/03 09:33:52;;;;;;;40.50;20.15;;;;;;;2.43;68.74;99699.38;5078117;28;20107;-76
2020/12/03 09:36:19;;;;;;;35.88;18.10;;;;;;;2.45;69.30;99696.53;5077409;28;20059;-76
2020/12/03 09:38:48;;;;;;;38.83;19.70;;;;;;;2.43;68.62;99699.38;5074465;28;20016;-77
2020/12/03 09:41:19;;;;;;;44.83;21.50;;;;;;;2.43;68.84;99694.09;5085567;28;20034;-76
2020/12/03 09:43:47;;;;;;;43.33;20.40;;;;;;;2.44;68.75;99681.69;5094022;28;20475;-75
2020/12/03 09:46:14;;;;;;;45.23;23.93;;;;;;;2.45;68.96;99665.63;5094622;28;20023;-76
2020/12/03 09:48:41;;;;;;;39.88;21.65;;;;;;;2.45;68.59;99675.41;5081706;28;20038;-77
2020/12/03 09:51:07;;;;;;;43.00;18.27;;;;;;;2.46;68.42;99677.81;5092536;28;20015;-76
2020/12/03 09:53:34;;;;;;;38.40;19.13;;;;;;;2.44;68.82;99668.50;5079319;28;20069;-77
2020/12/03 09:56:01;;;;;;;32.35;18.67;;;;;;;2.49;68.89;99671.31;5094017;28;20058;-75
2020/12/03 09:58:27;;;;;;;37.60;19.10;;;;;;;2.52;68.95;99670.91;5081783;28;20020;-76
2020/12/03 10:00:54;;;;;;;34.20;17.40;;;;;;;2.51;68.67;99667.44;5073920;28;20028;-75
2020/12/03 10:03:57;;;;;;;39.22;19.17;;;;;;;2.56;68.32;99665.03;5074024;28;20185;-76
2020/12/03 10:06:28;;;;;;;41.22;18.83;;;;;;;2.60;69.13;99657.50;5091866;28;20043;-77
2020/12/03 10:09:25;;;;;;;43.63;21.13;;;;;;;2.67;68.88;99657.47;5076361;28;20028;-81
2020/12/03 10:12:09;;;;;;;34.67;18.08;;;;;;;2.71;68.47;99650.72;5093658;28;20080;-76
2020/12/03 10:15:13;;;;;;;39.60;19.80;;;;;;;2.75;68.43;99641.38;5089029;28;20667;-77
2020/12/03 10:34:23;;;;;;;49.25;25.40;;;;;;;3.29;66.86;99651.69;5006671;28;20050;-76
2020/12/03 10:36:56;;;;;;;48.63;24.38;;;;;;;3.30;66.86;99650.66;5008897;28;20327;-76
2020/12/03 10:39:28;;;;;;;45.65;21.00;;;;;;;3.27;66.87;99649.25;5008445;28;20022;-75
2020/12/03 10:41:53;;;;;;;71.20;20.73;;;;;;;3.26;66.40;99649.44;5011481;28;20093;-76
2020/12/03 10:44:24;;;;;;;67.32;21.70;;;;;;;3.23;66.62;99652.53;5008762;28;20034;-76
2020/12/03 10:46:54;;;;;;;49.38;20.65;;;;;;;3.22;66.38;99656.19;4987528;28;20026;-76
2020/12/03 10:49:23;;;;;;;143.02;52.92;;;;;;;3.18;66.40;99645.22;5004049;28;20541;-76
2020/12/03 10:51:48;;;;;;;69.07;22.83;;;;;;;3.09;66.42;99642.03;4991209;28;20375;-75
2020/12/03 10:54:19;;;;;;;56.88;20.13;;;;;;;3.08;67.28;99635.13;5008516;28;20040;-76
2020/12/03 10:56:49;;;;;;;55.35;22.40;;;;;;;3.05;66.72;99635.53;4988746;28;20042;-76
2020/12/03 10:59:28;;;;;;;44.97;21.52;;;;;;;2.99;67.07;99629.28;4990364;28;20054;-76
2020/12/03 11:01:54;;;;;;;;;;;;;;;3.04;67.28;99629.44;4991296;28;20053;-75
2020/12/03 11:04:20;;;;;;;48.78;21.95;;;;;;;3.04;67.33;99624.16;5008480;28;19918;-75
2020/12/03 11:06:46;;;;;;;48.63;21.60;;;;;;;3.06;67.40;99617.88;5008564;28;20061;-75
2020/12/03 11:09:20;;;;;;;38.97;20.45;;;;;;;3.10;66.91;99611.94;4990529;28;20470;-75
2020/12/03 11:11:47;;;;;;;41.22;20.35;;;;;;;3.05;67.27;99601.19;5008472;28;20406;-75
2020/12/03 11:14:15;;;;;;;46.47;21.52;;;;;;;3.13;67.30;99618.63;5002815;28;20034;-75
2020/12/03 11:16:56;;;;;;;45.53;21.30;;;;;;;3.18;67.65;99613.53;4988676;28;20038;-77
2020/12/03 11:19:23;;;;;;;54.03;22.98;;;;;;;3.13;67.34;99597.50;4978271;28;20045;-76
2020/12/03 11:22:06;;;;;;;39.85;19.55;;;;;;;3.19;67.55;99596.63;4990442;28;20030;-77
2020/12/03 11:24:50;;;;;;;43.40;20.10;;;;;;;3.23;67.13;99607.59;5007963;28;20057;-76
2020/12/03 11:27:20;;;;;;;54.85;20.80;;;;;;;3.30;67.21;99595.16;4982540;28;20045;-76
2020/12/03 11:29:46;;;;;;;55.92;18.67;;;;;;;3.28;66.48;99582.13;5010404;28;20029;-76
2020/12/03 11:32:28;;;;;;;50.67;20.23;;;;;;;3.33;66.42;99584.13;5000760;28;20042;-77
2020/12/03 11:34:54;;;;;;;43.47;19.73;;;;;;;3.34;66.90;99580.47;4980591;28;20051;-77
2020/12/03 11:37:26;;;;;;;50.00;18.77;;;;;;;3.30;66.95;99574.78;4986812;28;20034;-76
2020/12/03 11:40:07;;;;;;;50.20;17.45;;;;;;;3.33;66.82;99568.25;4961505;28;20041;-76
2020/12/03 11:42:51;;;;;;;48.20;19.83;;;;;;;3.31;66.52;99576.41;4976517;28;20123;-78
2020/12/03 11:48:28;;;;;;;68.13;18.42;;;;;;;3.21;65.99;99565.53;4976399;28;20045;-77
2020/12/03 11:50:51;;;;;;;70.53;21.92;;;;;;;3.15;66.44;99556.63;4975855;28;20031;-78
2020/12/03 11:53:21;;;;;;;60.75;18.92;;;;;;;3.13;67.07;99555.22;4959343;28;20046;-77
2020/12/03 11:55:47;;;;;;;51.17;17.23;;;;;;;3.13;67.08;99560.50;4967442;28;20521;-78
2020/12/03 11:58:12;;;;;;;42.53;18.55;;;;;;;3.13;67.55;99561.28;4995501;28;20120;-78
2020/12/03 12:00:37;;;;;;;60.88;21.70;;;;;;;3.14;67.54;99556.84;4977604;28;20069;-78
2020/12/03 12:03:07;;;;;;;47.72;19.15;;;;;;;3.16;67.56;99555.59;4959298;28;20061;-77
2020/12/03 12:05:47;;;;;;;48.33;19.00;;;;;;;3.17;67.87;99556.38;4958473;28;20402;-77
2020/12/03 12:11:32;;;;;;;79.97;22.48;;;;;;;3.01;67.87;99552.44;4975475;28;20470;-76